Time;durP1;ratioP1;P1;durP2;ratioP2;P2;SDS_P1;SDS_P2;PMS_P1;PMS_P2;Temp;Humidity;BMP_temperature;BMP_pressure;BME280_temperature;BME280_humidity;BME280_pressure;Samples;Min_cycle;Max_cycle;Signal;HPM_P1;HPM_P2
2021/04/29 00:01:45;;;;;;;11.52;10.32;;;11.80;99.90;;;;;;5091032;28;20020;-49
2021/04/29 00:04:12;;;;;;;11.00;9.73;;;11.90;99.90;;;;;;5089978;28;20077;-49
2021/04/29 00:06:37;;;;;;;10.90;9.70;;;11.90;99.90;;;;;;5090991;28;20047;-46
2021/04/29 00:09:04;;;;;;;9.98;8.88;;;11.90;99.90;;;;;;5090787;28;20028;-47
2021/04/29 00:11:31;;;;;;;11.70;9.52;;;11.90;99.90;;;;;;5090809;28;20050;-47
2021/04/29 00:13:56;;;;;;;14.00;9.80;;;11.80;99.90;;;;;;5071921;28;20465;-47
2021/04/29 00:16:22;;;;;;;13.40;10.13;;;11.80;99.90;;;;;;5090605;28;20100;-47
2021/04/29 00:18:48;;;;;;;16.40;10.63;;;11.90;99.90;;;;;;5072382;28;20039;-46
2021/04/29 00:21:13;;;;;;;11.15;9.95;;;11.90;99.90;;;;;;5072519;28;20442;-47
2021/04/29 00:23:39;;;;;;;11.30;10.15;;;11.80;99.90;;;;;;5089960;28;20043;-46
2021/04/29 00:26:04;;;;;;;11.05;9.75;;;11.80;99.90;;;;;;5090496;28;20020;-46
2021/04/29 00:28:30;;;;;;;10.50;9.45;;;11.70;99.90;;;;;;5090519;28;20024;-47
2021/04/29 00:30:55;;;;;;;12.20;10.23;;;11.80;99.90;;;;;;5090405;28;20032;-50
2021/04/29 00:33:21;;;;;;;11.20;10.10;;;11.70;99.90;;;;;;5089662;28;20081;-50
2021/04/29 00:35:47;;;;;;;14.73;10.45;;;11.70;99.90;;;;;;5072290;28;20188;-50
2021/04/29 00:38:12;;;;;;;11.50;10.35;;;11.70;99.90;;;;;;5090312;28;20028;-47
2021/04/29 00:40:38;;;;;;;11.55;10.35;;;11.60;99.90;;;;;;5090210;28;20020;-48
2021/04/29 00:43:04;;;;;;;13.32;9.82;;;11.70;99.90;;;;;;5089555;28;20079;-48
2021/04/29 00:45:29;;;;;;;14.98;9.98;;;11.70;99.90;;;;;;5091799;28;20032;-47
2021/04/29 00:47:55;;;;;;;10.88;9.73;;;11.70;99.90;;;;;;5094367;28;20020;-49
2021/04/29 00:50:25;;;;;;;12.05;9.90;;;11.80;99.90;;;;;;5094304;28;20031;-46
2021/04/29 00:52:51;;;;;;;13.70;11.18;;;11.90;99.90;;;;;;5075651;28;20016;-47
2021/04/29 00:55:17;;;;;;;9.95;8.88;;;11.80;99.90;;;;;;5094401;28;20048;-46
2021/04/29 00:57:42;;;;;;;13.48;9.95;;;11.80;99.90;;;;;;5076397;28;20424;-46
2021/04/29 01:00:10;;;;;;;11.73;9.02;;;11.90;99.90;;;;;;5094211;28;20016;-49
2021/04/29 01:02:39;;;;;;;11.90;9.40;;;11.90;99.90;;;;;;5094105;28;20031;-46
2021/04/29 01:05:37;;;;;;;10.48;8.77;;;11.80;99.90;;;;;;5094772;28;20093;-46
2021/04/29 01:08:14;;;;;;;9.63;8.02;;;11.90;99.90;;;;;;5066751;28;20028;-50
2021/04/29 01:11:02;;;;;;;13.80;8.93;;;11.90;99.90;;;;;;5094261;28;20034;-52
2021/04/29 01:13:32;;;;;;;11.02;8.57;;;11.90;99.90;;;;;;5075107;28;20153;-50
2021/04/29 01:15:58;;;;;;;10.23;9.10;;;11.90;99.90;;;;;;5093835;28;20077;-48
2021/04/29 01:18:25;;;;;;;13.82;9.35;;;11.90;99.90;;;;;;5093940;28;20028;-51
2021/04/29 01:21:12;;;;;;;10.07;9.07;;;11.80;99.90;;;;;;5093982;28;20024;-47
2021/04/29 01:23:40;;;;;;;15.32;9.43;;;11.70;99.90;;;;;;5093284;28;20020;-49
2021/04/29 01:26:20;;;;;;;14.52;9.07;;;11.70;99.90;;;;;;5094054;28;20030;-53
2021/04/29 01:28:50;;;;;;;14.52;9.27;;;11.60;99.90;;;;;;5094224;28;20551;-47
2021/04/29 01:31:19;;;;;;;11.27;8.82;;;11.70;99.90;;;;;;5094120;28;20077;-49
2021/04/29 01:33:45;;;;;;;11.02;8.80;;;11.70;99.90;;;;;;5093163;28;20081;-50
2021/04/29 01:36:11;;;;;;;9.93;9.02;;;11.70;99.90;;;;;;5075598;28;20028;-46
2021/04/29 01:38:38;;;;;;;10.35;9.05;;;11.50;99.90;;;;;;5094210;28;20478;-46
2021/04/29 01:41:04;;;;;;;11.98;8.93;;;11.50;99.90;;;;;;5093935;28;20024;-45
2021/04/29 01:43:32;;;;;;;9.98;8.75;;;11.60;99.90;;;;;;5093460;28;20508;-46
2021/04/29 01:45:58;;;;;;;10.55;8.43;;;11.50;99.90;;;;;;5093828;28;20458;-48
2021/04/29 01:48:23;;;;;;;9.57;8.73;;;11.50;99.90;;;;;;5093711;28;20066;-48
2021/04/29 01:50:49;;;;;;;10.23;8.32;;;11.50;99.90;;;;;;5093638;28;20440;-48
2021/04/29 01:53:15;;;;;;;10.80;8.32;;;11.50;99.90;;;;;;5074796;28;20016;-50
2021/04/29 01:55:41;;;;;;;13.35;9.32;;;11.50;99.90;;;;;;5075126;28;20024;-49
2021/04/29 01:58:07;;;;;;;10.90;9.15;;;11.60;99.90;;;;;;5093269;28;20021;-49
2021/04/29 02:00:32;;;;;;;11.73;8.60;;;11.60;99.90;;;;;;5093340;28;20035;-46
2021/04/29 02:03:01;;;;;;;11.23;9.10;;;11.60;99.90;;;;;;5092368;28;20043;-46
2021/04/29 02:05:27;;;;;;;10.80;8.50;;;11.50;99.90;;;;;;5092949;28;20027;-46
2021/04/29 02:07:53;;;;;;;9.43;8.45;;;11.40;99.90;;;;;;5092999;28;20024;-48
2021/04/29 02:10:18;;;;;;;9.63;8.48;;;11.40;99.90;;;;;;5093238;28;20046;-46
2021/04/29 02:12:50;;;;;;;8.52;7.70;;;11.40;99.90;;;;;;5092447;28;20485;-50
2021/04/29 02:15:16;;;;;;;10.70;8.73;;;11.40;99.90;;;;;;5093151;28;20024;-46
2021/04/29 02:18:03;;;;;;;9.73;8.73;;;11.30;99.90;;;;;;5092964;28;20642;-46
2021/04/29 02:20:31;;;;;;;11.55;9.50;;;11.30;99.90;;;;;;5093471;28;20024;-48
2021/04/29 02:22:57;;;;;;;11.65;9.07;;;11.30;99.90;;;;;;5092435;28;20108;-50
2021/04/29 02:25:26;;;;;;;8.57;7.78;;;11.30;99.90;;;;;;5092615;28;20028;-50
2021/04/29 02:27:53;;;;;;;12.40;8.88;;;11.30;99.90;;;;;;5092585;28;20103;-47
2021/04/29 02:30:19;;;;;;;12.93;8.80;;;11.30;99.90;;;;;;5092659;28;20024;-46
2021/04/29 02:32:45;;;;;;;10.98;9.18;;;11.20;99.90;;;;;;5092156;28;20529;-48
2021/04/29 02:35:14;;;;;;;10.38;9.38;;;11.20;99.90;;;;;;5092267;28;20055;-51
2021/04/29 02:37:41;;;;;;;10.45;9.43;;;11.20;99.90;;;;;;5092424;28;20035;-48
2021/04/29 02:40:08;;;;;;;12.45;9.57;;;11.20;99.90;;;;;;5092206;28;20028;-46
2021/04/29 02:42:34;;;;;;;10.18;9.23;;;11.20;99.90;;;;;;5091637;28;20024;-49
2021/04/29 02:45:01;;;;;;;12.07;10.40;;;11.20;99.90;;;;;;5057134;28;20106;-53
2021/04/29 02:47:27;;;;;;;11.68;9.32;;;11.20;99.90;;;;;;5074232;28;20084;-49
2021/04/29 02:49:53;;;;;;;11.90;9.38;;;11.20;99.90;;;;;;5092051;28;20494;-53
2021/04/29 02:52:19;;;;;;;13.70;9.35;;;11.10;99.90;;;;;;5092071;28;20347;-51
2021/04/29 02:54:45;;;;;;;10.30;9.18;;;11.10;99.90;;;;;;5091304;28;20111;-46
2021/04/29 02:57:22;;;;;;;12.75;8.75;;;11.10;99.90;;;;;;5091745;28;20209;-51
2021/04/29 02:59:48;;;;;;;11.82;8.77;;;11.20;99.90;;;;;;5091810;28;20020;-50
2021/04/29 03:02:15;;;;;;;9.93;8.65;;;11.20;99.90;;;;;;5091674;28;20403;-52
2021/04/29 03:04:41;;;;;;;9.43;8.52;;;11.20;99.90;;;;;;5072643;28;20027;-52
2021/04/29 03:07:07;;;;;;;11.25;9.00;;;11.20;99.90;;;;;;5091708;28;20040;-48
2021/04/29 03:09:32;;;;;;;11.75;9.40;;;11.10;99.90;;;;;;5090817;28;20035;-49
2021/04/29 03:11:58;;;;;;;11.38;8.63;;;11.10;99.90;;;;;;5073225;28;20114;-49
2021/04/29 03:14:23;;;;;;;10.90;9.80;;;11.10;99.90;;;;;;5090632;28;20114;-52
2021/04/29 03:16:49;;;;;;;11.57;9.32;;;11.10;99.90;;;;;;5091385;28;20505;-49
2021/04/29 03:19:14;;;;;;;11.40;9.88;;;11.10;99.90;;;;;;5091399;28;20461;-51
2021/04/29 03:21:40;;;;;;;15.15;9.57;;;11.10;99.90;;;;;;5091354;28;20515;-49
2021/04/29 03:24:07;;;;;;;13.65;9.25;;;11.00;99.90;;;;;;5090550;28;20516;-50
2021/04/29 03:26:33;;;;;;;12.88;11.15;;;11.10;99.90;;;;;;5091056;28;20060;-47
2021/04/29 03:28:58;;;;;;;13.65;10.60;;;11.00;99.90;;;;;;5091159;28;20059;-50
2021/04/29 03:31:24;;;;;;;15.30;11.73;;;11.00;99.90;;;;;;5073097;28;20020;-49
2021/04/29 03:33:50;;;;;;;18.92;11.48;;;10.90;99.90;;;;;;5090566;28;20035;-49
2021/04/29 03:36:15;;;;;;;15.52;12.25;;;10.90;99.90;;;;;;5091023;28;20592;-49
2021/04/29 03:38:41;;;;;;;20.65;13.23;;;10.90;99.90;;;;;;5091102;28;20095;-47
2021/04/29 03:41:07;;;;;;;16.45;12.60;;;10.80;99.90;;;;;;5073397;28;20115;-52
2021/04/29 03:43:32;;;;;;;14.73;12.70;;;10.90;99.90;;;;;;5091174;28;20056;-48
2021/04/29 03:45:58;;;;;;;19.60;14.38;;;10.90;99.90;;;;;;5091470;28;20050;-46
2021/04/29 03:48:23;;;;;;;19.73;14.35;;;10.90;99.90;;;;;;5091340;28;20084;-46
2021/04/29 03:50:49;;;;;;;18.58;14.63;;;10.90;99.90;;;;;;5091218;28;20028;-47
2021/04/29 03:53:14;;;;;;;22.60;16.23;;;10.90;99.90;;;;;;5090677;28;20078;-50
2021/04/29 03:55:40;;;;;;;19.80;17.35;;;10.90;99.90;;;;;;5091431;28;20056;-49
2021/04/29 03:58:05;;;;;;;20.50;16.52;;;10.90;99.90;;;;;;5091396;28;20020;-51
2021/04/29 04:00:31;;;;;;;22.23;18.00;;;10.90;99.90;;;;;;5090693;28;20035;-51
2021/04/29 04:02:57;;;;;;;21.90;17.77;;;10.90;99.90;;;;;;5090074;28;20393;-49
2021/04/29 04:05:22;;;;;;;21.23;17.92;;;10.80;99.90;;;;;;5090577;28;20071;-49
2021/04/29 04:07:48;;;;;;;21.27;17.90;;;10.80;99.90;;;;;;5090806;28;20049;-51
2021/04/29 04:10:13;;;;;;;22.83;18.23;;;10.80;99.90;;;;;;5090308;28;20031;-52
2021/04/29 04:12:39;;;;;;;24.27;19.20;;;10.80;99.90;;;;;;5090085;28;20024;-54
2021/04/29 04:15:06;;;;;;;23.08;18.88;;;10.80;99.90;;;;;;5090632;28;20016;-49
2021/04/29 04:17:31;;;;;;;25.85;19.92;;;10.80;99.90;;;;;;5090831;28;20549;-47
2021/04/29 04:19:57;;;;;;;24.00;18.60;;;10.80;99.90;;;;;;5089748;28;20102;-50
2021/04/29 04:22:22;;;;;;;24.33;18.67;;;10.80;99.90;;;;;;5090560;28;20024;-48
2021/04/29 04:24:48;;;;;;;22.17;17.88;;;10.90;99.90;;;;;;5089783;28;20039;-50
2021/04/29 04:27:13;;;;;;;25.45;18.65;;;10.90;99.90;;;;;;5090498;28;20078;-50
2021/04/29 04:29:39;;;;;;;22.45;18.20;;;10.90;99.90;;;;;;5090335;28;20028;-51
2021/04/29 04:32:05;;;;;;;19.23;17.08;;;10.90;99.90;;;;;;5072445;28;20025;-51
2021/04/29 04:34:30;;;;;;;24.67;17.38;;;10.90;99.90;;;;;;5089722;28;20016;-48
2021/04/29 04:36:56;;;;;;;21.45;17.58;;;10.90;99.90;;;;;;5090511;28;20051;-51
2021/04/29 04:39:22;;;;;;;21.48;17.33;;;10.90;99.90;;;;;;5089384;28;20031;-52
2021/04/29 04:41:47;;;;;;;21.27;17.08;;;10.90;99.90;;;;;;5090432;28;20385;-50
2021/04/29 04:44:13;;;;;;;22.70;16.25;;;10.90;99.90;;;;;;5090053;28;20107;-51
2021/04/29 04:46:39;;;;;;;22.92;17.10;;;10.90;99.90;;;;;;5090792;28;20028;-47
2021/04/29 04:49:04;;;;;;;22.75;16.40;;;10.90;99.90;;;;;;5091033;28;20156;-46
2021/04/29 04:51:30;;;;;;;20.60;16.38;;;11.00;99.90;;;;;;5090691;28;20057;-47
2021/04/29 04:53:55;;;;;;;22.05;17.10;;;11.00;99.90;;;;;;5072428;28;20500;-46
2021/04/29 04:56:21;;;;;;;20.13;15.23;;;11.10;99.90;;;;;;5090586;28;20134;-46
2021/04/29 04:58:46;;;;;;;17.00;15.20;;;11.30;99.90;;;;;;5090697;28;20016;-46
2021/04/29 05:01:12;;;;;;;16.70;14.90;;;11.40;99.90;;;;;;5090681;28;20030;-49
2021/04/29 05:03:38;;;;;;;15.52;12.80;;;11.60;99.90;;;;;;5090291;28;20039;-48
2021/04/29 05:06:04;;;;;;;13.63;11.80;;;11.80;99.90;;;;;;5103904;22;20305;-45
2021/04/29 05:08:29;;;;;;;17.42;13.88;;;11.90;99.90;;;;;;5090531;28;20031;-49
2021/04/29 05:10:55;;;;;;;14.10;12.63;;;12.10;99.90;;;;;;5089753;28;20039;-47
2021/04/29 05:13:22;;;;;;;15.82;13.20;;;12.20;99.90;;;;;;5089234;28;20134;-47
2021/04/29 05:15:48;;;;;;;14.25;12.75;;;12.30;99.90;;;;;;5089954;28;20073;-46
2021/04/29 05:18:13;;;;;;;14.02;12.25;;;12.50;99.90;;;;;;5089915;28;20213;-49
2021/04/29 05:20:39;;;;;;;17.55;12.93;;;12.70;99.90;;;;;;5089920;28;20454;-51
2021/04/29 05:23:04;;;;;;;14.98;12.52;;;12.70;99.90;;;;;;5089209;28;20474;-52
2021/04/29 05:25:30;;;;;;;17.58;13.02;;;12.80;99.90;;;;;;5089804;28;20024;-51
2021/04/29 05:28:00;;;;;;;16.13;12.18;;;13.00;99.90;;;;;;5089801;28;20500;-48
2021/04/29 05:30:25;;;;;;;14.73;12.38;;;12.80;99.90;;;;;;5089844;28;20508;-45
2021/04/29 05:32:51;;;;;;;18.13;13.77;;;12.70;99.90;;;;;;5074325;28;20028;-50
2021/04/29 05:35:17;;;;;;;15.85;12.85;;;12.70;99.90;;;;;;5093594;28;20086;-47
2021/04/29 05:37:42;;;;;;;15.95;13.85;;;12.50;99.90;;;;;;5093944;28;20113;-47
2021/04/29 05:40:09;;;;;;;18.33;13.65;;;12.50;99.90;;;;;;5094031;28;20035;-46
2021/04/29 05:42:34;;;;;;;19.00;13.85;;;12.40;99.90;;;;;;5075306;28;20128;-45
2021/04/29 05:45:00;;;;;;;14.70;13.07;;;12.30;99.90;;;;;;5093618;28;20059;-49
2021/04/29 05:47:26;;;;;;;20.60;14.07;;;12.20;99.90;;;;;;5093519;28;20028;-46
2021/04/29 05:49:52;;;;;;;14.30;12.80;;;12.10;99.90;;;;;;5093374;28;20028;-47
2021/04/29 05:52:17;;;;;;;19.30;14.02;;;12.00;99.90;;;;;;5093109;28;20020;-46
2021/04/29 05:54:43;;;;;;;15.77;13.20;;;11.90;99.90;;;;;;5074366;28;20020;-49
2021/04/29 05:57:08;;;;;;;19.33;13.35;;;11.90;99.90;;;;;;5093295;28;20035;-49
2021/04/29 05:59:34;;;;;;;20.90;14.40;;;11.90;99.90;;;;;;5093091;28;20396;-48
2021/04/29 06:01:59;;;;;;;16.95;13.50;;;11.90;99.90;;;;;;5093071;28;20588;-46
2021/04/29 06:04:25;;;;;;;18.65;13.48;;;11.90;99.90;;;;;;5092504;28;20103;-49
2021/04/29 06:06:51;;;;;;;16.92;13.13;;;11.80;99.90;;;;;;5093004;28;20501;-47
2021/04/29 06:09:18;;;;;;;15.07;13.40;;;11.70;99.90;;;;;;5093129;28;20400;-46
2021/04/29 06:11:43;;;;;;;15.98;13.57;;;11.70;99.90;;;;;;5092893;28;20016;-48
2021/04/29 06:14:12;;;;;;;19.08;14.38;;;11.70;99.90;;;;;;5092136;28;20445;-47
2021/04/29 06:16:39;;;;;;;16.77;13.50;;;11.80;99.90;;;;;;5092760;28;20020;-48
2021/04/29 06:19:05;;;;;;;17.85;13.35;;;11.80;99.90;;;;;;5092874;28;20059;-46
2021/04/29 06:21:30;;;;;;;16.70;12.73;;;11.80;99.90;;;;;;5074793;28;20052;-50
2021/04/29 06:23:56;;;;;;;16.55;12.00;;;11.80;99.90;;;;;;5092046;28;20103;-45
2021/04/29 06:26:22;;;;;;;15.18;12.88;;;11.80;99.90;;;;;;5092490;28;20326;-45
2021/04/29 06:28:48;;;;;;;14.20;12.13;;;11.90;99.90;;;;;;5092987;28;20075;-56
2021/04/29 06:31:13;;;;;;;14.23;12.68;;;12.10;99.90;;;;;;5083595;28;20516;-54
2021/04/29 06:33:39;;;;;;;17.13;12.27;;;12.10;99.90;;;;;;5058859;28;20024;-54
2021/04/29 06:36:05;;;;;;;13.85;11.82;;;12.20;99.90;;;;;;5091562;28;20024;-55
2021/04/29 06:38:30;;;;;;;13.93;11.80;;;12.30;99.90;;;;;;5071941;28;20472;-50
2021/04/29 06:40:56;;;;;;;11.70;10.25;;;12.40;99.90;;;;;;5090287;28;20035;-48
2021/04/29 06:43:22;;;;;;;16.75;12.13;;;12.50;99.90;;;;;;5090134;28;20478;-50
2021/04/29 06:45:47;;;;;;;15.23;11.00;;;12.50;99.90;;;;;;5085191;28;20306;-51
2021/04/29 06:48:13;;;;;;;13.75;10.02;;;12.60;99.90;;;;;;5089701;28;20036;-52
2021/04/29 06:50:39;;;;;;;13.48;9.73;;;12.90;99.90;;;;;;5090625;28;20028;-49
2021/04/29 06:53:05;;;;;;;14.00;9.40;;;13.10;99.90;;;;;;5085462;28;20043;-49
2021/04/29 06:55:31;;;;;;;11.13;8.60;;;13.30;99.90;;;;;;5093548;28;20024;-53
2021/04/29 06:57:57;;;;;;;10.13;8.52;;;13.50;99.90;;;;;;5087450;28;20051;-54
2021/04/29 07:00:25;;;;;;;9.63;8.43;;;13.60;99.90;;;;;;5072010;28;20020;-53
2021/04/29 07:02:55;;;;;;;12.63;8.77;;;13.70;99.90;;;;;;5070773;28;20604;-54
2021/04/29 07:05:21;;;;;;;7.80;7.00;;;13.70;99.90;;;;;;5086809;28;20055;-51
2021/04/29 07:07:49;;;;;;;7.70;7.00;;;13.90;99.90;;;;;;5089981;28;20063;-57
2021/04/29 07:10:15;;;;;;;11.73;8.23;;;14.00;99.90;;;;;;5086403;28;20038;-55
2021/04/29 07:12:40;;;;;;;7.75;7.05;;;14.20;99.90;;;;;;5090666;28;20020;-53
2021/04/29 07:15:06;;;;;;;9.05;6.75;;;14.60;99.90;;;;;;5091304;28;20028;-54
2021/04/29 07:17:32;;;;;;;7.38;6.55;;;15.20;99.90;;;;;;5090746;28;20115;-54
2021/04/29 07:19:57;;;;;;;8.23;6.95;;;15.70;99.90;;;;;;5072792;28;20123;-55
2021/04/29 07:22:23;;;;;;;8.18;7.38;;;15.70;99.90;;;;;;5077549;28;20397;-56
2021/04/29 07:24:48;;;;;;;8.77;6.95;;;15.50;99.20;;;;;;5070384;28;20089;-57
2021/04/29 07:27:14;;;;;;;7.50;6.80;;;15.30;99.90;;;;;;5071050;28;20036;-54
2021/04/29 07:29:39;;;;;;;10.88;6.88;;;15.20;99.30;;;;;;5070867;28;20035;-53
2021/04/29 07:32:05;;;;;;;8.88;6.90;;;15.00;99.20;;;;;;5080612;28;20028;-58
2021/04/29 07:34:31;;;;;;;8.57;6.65;;;14.90;99.90;;;;;;5074786;28;20028;-58
2021/04/29 07:37:01;;;;;;;10.20;6.85;;;14.90;99.90;;;;;;5087838;28;20435;-56
2021/04/29 07:39:26;;;;;;;8.02;6.93;;;14.80;99.90;;;;;;5086711;28;20390;-53
2021/04/29 07:41:52;;;;;;;8.32;6.78;;;14.80;99.90;;;;;;5071165;28;20020;-61
2021/04/29 07:44:18;;;;;;;10.02;7.43;;;14.70;99.90;;;;;;5070959;28;20020;-53
2021/04/29 07:46:44;;;;;;;8.48;7.47;;;14.60;99.90;;;;;;5070283;28;20024;-55
2021/04/29 07:49:09;;;;;;;12.68;7.72;;;14.40;99.90;;;;;;5070143;28;20031;-51
2021/04/29 07:51:35;;;;;;;8.13;6.95;;;14.40;99.90;;;;;;5073442;28;20373;-47
2021/04/29 07:54:03;;;;;;;8.15;7.25;;;14.30;99.90;;;;;;5069555;28;20534;-57
2021/04/29 07:56:29;;;;;;;10.05;7.05;;;14.50;99.90;;;;;;5069742;28;20020;-53
2021/04/29 07:58:55;;;;;;;8.43;6.57;;;14.70;99.90;;;;;;5084398;28;20031;-54
2021/04/29 08:01:20;;;;;;;7.82;7.10;;;14.90;99.20;;;;;;5072270;28;20024;-51
2021/04/29 08:03:46;;;;;;;7.65;6.82;;;15.40;98.30;;;;;;5089371;28;20103;-50
2021/04/29 08:06:12;;;;;;;9.23;5.95;;;16.00;97.80;;;;;;5090067;28;20031;-55
2021/04/29 08:08:37;;;;;;;8.65;6.60;;;16.30;97.70;;;;;;5090252;28;20028;-48
2021/04/29 08:11:03;;;;;;;7.97;7.22;;;16.40;96.80;;;;;;5090594;28;20378;-51
2021/04/29 08:13:28;;;;;;;8.68;7.78;;;16.50;95.90;;;;;;5090814;28;20020;-48
2021/04/29 08:15:54;;;;;;;9.05;7.80;;;16.50;94.60;;;;;;5090809;28;20024;-49
2021/04/29 08:18:19;;;;;;;8.82;7.90;;;16.40;95.10;;;;;;5090383;28;20035;-49
2021/04/29 08:20:45;;;;;;;11.57;8.82;;;15.90;94.50;;;;;;5090910;28;20094;-47
2021/04/29 08:23:11;;;;;;;11.27;8.98;;;15.80;94.60;;;;;;5089682;28;20108;-50
2021/04/29 08:25:36;;;;;;;10.48;8.80;;;15.90;95.20;;;;;;5093909;28;20020;-54
2021/04/29 08:28:03;;;;;;;10.23;7.95;;;16.10;95.40;;;;;;5087444;28;20031;-54
2021/04/29 08:30:29;;;;;;;10.48;9.02;;;16.10;95.30;;;;;;5069609;28;20034;-44
2021/04/29 08:33:00;;;;;;;14.23;8.80;;;15.80;95.30;;;;;;5079621;28;20080;-46
2021/04/29 08:35:26;;;;;;;10.73;9.63;;;15.70;95.20;;;;;;5087163;28;20020;-45
2021/04/29 08:37:52;;;;;;;12.05;9.98;;;15.60;94.90;;;;;;5091187;28;20278;-47
2021/04/29 08:40:22;;;;;;;11.23;10.15;;;15.40;95.10;;;;;;5073339;28;20031;-49
2021/04/29 08:42:48;;;;;;;14.57;11.00;;;15.30;95.80;;;;;;5080052;28;20023;-59
2021/04/29 08:45:15;;;;;;;13.45;11.20;;;15.20;96.20;;;;;;5080961;28;20105;-53
2021/04/29 08:47:40;;;;;;;14.00;12.48;;;15.10;96.60;;;;;;5089979;28;20028;-53
2021/04/29 08:50:07;;;;;;;14.38;11.27;;;15.20;96.00;;;;;;5071267;28;20039;-53
2021/04/29 08:52:33;;;;;;;14.13;11.45;;;15.20;95.80;;;;;;5088983;28;20059;-51
2021/04/29 08:54:59;;;;;;;12.40;11.10;;;15.20;95.40;;;;;;5089282;28;20489;-58
2021/04/29 08:57:26;;;;;;;18.05;11.32;;;15.40;95.00;;;;;;5070197;28;20035;-57
2021/04/29 08:59:52;;;;;;;13.23;11.82;;;15.50;95.30;;;;;;5090599;28;20401;-61
2021/04/29 09:02:31;;;;;;;12.75;11.40;;;15.60;95.30;;;;;;5089810;28;20020;-65
2021/04/29 09:05:07;;;;;;;12.20;10.57;;;15.70;95.70;;;;;;5089524;28;20025;-62
2021/04/29 09:07:33;;;;;;;14.00;11.80;;;15.70;96.40;;;;;;5093249;28;20528;-60
2021/04/29 09:09:58;;;;;;;11.27;9.68;;;15.50;96.10;;;;;;5075400;28;20055;-54
2021/04/29 09:12:33;;;;;;;11.30;9.30;;;15.50;93.90;;;;;;5092980;28;20099;-49
2021/04/29 09:14:58;;;;;;;14.93;7.97;;;15.50;93.50;;;;;;5093596;28;20020;-53
2021/04/29 09:17:24;;;;;;;11.75;8.57;;;15.50;92.00;;;;;;5093961;28;20051;-53
2021/04/29 09:19:53;;;;;;;11.55;7.40;;;15.80;91.60;;;;;;5093279;28;20031;-53
2021/04/29 09:22:21;;;;;;;13.50;7.28;;;16.30;91.20;;;;;;5074580;28;20028;-50
2021/04/29 09:24:47;;;;;;;9.48;6.82;;;16.70;90.20;;;;;;5092773;28;20044;-61
2021/04/29 09:27:16;;;;;;;7.57;6.78;;;16.90;89.30;;;;;;5093019;28;20024;-55
2021/04/29 09:30:00;;;;;;;9.63;8.00;;;17.30;88.60;;;;;;5076072;28;20482;-57
2021/04/29 09:32:31;;;;;;;10.48;8.65;;;17.30;88.70;;;;;;5076087;28;20107;-54
2021/04/29 09:34:57;;;;;;;14.23;9.05;;;17.60;89.00;;;;;;5091825;28;20417;-51
2021/04/29 09:37:30;;;;;;;14.75;7.97;;;18.10;86.50;;;;;;5092726;28;20020;-52
2021/04/29 09:39:56;;;;;;;12.07;9.30;;;18.30;85.90;;;;;;5093030;28;20048;-53
2021/04/29 09:42:36;;;;;;;10.48;8.35;;;18.20;82.30;;;;;;5092302;28;20062;-58
2021/04/29 09:45:04;;;;;;;9.77;7.70;;;18.30;84.50;;;;;;5093238;28;20545;-53
2021/04/29 09:47:30;;;;;;;10.02;8.50;;;18.60;84.60;;;;;;5092930;28;20024;-52
2021/04/29 09:49:55;;;;;;;11.02;8.45;;;18.50;83.70;;;;;;5092469;28;20374;-52
2021/04/29 09:52:24;;;;;;;11.57;7.93;;;18.40;82.40;;;;;;5092442;28;20035;-53
2021/04/29 09:54:51;;;;;;;9.77;8.27;;;18.30;81.50;;;;;;5092209;28;20024;-57
2021/04/29 09:57:25;;;;;;;7.15;6.45;;;18.50;82.10;;;;;;5092301;28;20031;-58
2021/04/29 10:00:01;;;;;;;12.55;7.15;;;18.60;81.60;;;;;;5092391;28;20517;-53
2021/04/29 10:02:28;;;;;;;10.65;7.32;;;18.60;76.50;;;;;;5080102;28;20142;-56
2021/04/29 10:04:54;;;;;;;8.10;7.03;;;18.50;77.60;;;;;;5097549;28;20394;-50
2021/04/29 10:07:22;;;;;;;7.57;6.88;;;18.10;77.90;;;;;;5092101;28;20028;-54
2021/04/29 10:09:48;;;;;;;7.53;6.80;;;17.60;81.10;;;;;;5092058;28;20104;-54
2021/04/29 10:12:16;;;;;;;9.75;6.95;;;17.60;83.50;;;;;;5091343;28;20024;-58
2021/04/29 10:14:49;;;;;;;7.05;6.40;;;17.40;82.80;;;;;;5091383;28;20048;-54
2021/04/29 10:17:17;;;;;;;7.55;6.60;;;17.20;79.60;;;;;;5091961;28;20105;-55
2021/04/29 10:19:45;;;;;;;7.20;5.68;;;17.00;81.40;;;;;;5091616;28;20016;-58
2021/04/29 10:22:12;;;;;;;9.93;6.60;;;17.00;81.30;;;;;;5092121;28;20039;-58
2021/04/29 10:24:45;;;;;;;7.75;6.60;;;17.10;81.60;;;;;;5073318;28;20051;-61
2021/04/29 10:27:13;;;;;;;9.93;6.05;;;16.90;81.90;;;;;;5090902;28;20493;-57
2021/04/29 10:29:39;;;;;;;6.80;6.05;;;16.90;80.60;;;;;;5075363;28;20037;-57
2021/04/29 10:32:09;;;;;;;10.25;6.32;;;16.80;80.70;;;;;;5053782;28;20051;-57
2021/04/29 10:34:47;;;;;;;8.75;5.93;;;16.60;80.10;;;;;;5070592;28;20069;-60
2021/04/29 10:37:16;;;;;;;7.25;5.00;;;16.40;79.10;;;;;;5056565;28;20020;-58
2021/04/29 10:39:53;;;;;;;5.32;4.82;;;16.30;76.60;;;;;;5091504;28;20028;-44
2021/04/29 10:42:19;;;;;;;8.68;4.30;;;16.40;79.10;;;;;;5080814;28;20031;-59
2021/04/29 10:44:48;;;;;;;5.80;5.25;;;16.60;80.00;;;;;;5065123;28;20031;-57
2021/04/29 10:47:28;;;;;;;5.95;5.03;;;16.90;79.90;;;;;;5080161;28;20036;-59
2021/04/29 10:50:13;;;;;;;7.00;5.07;;;17.20;80.50;;;;;;5070794;28;20034;-57
2021/04/29 10:52:46;;;;;;;7.28;4.63;;;17.40;75.10;;;;;;5070070;28;20039;-59
2021/04/29 10:55:29;;;;;;;3.05;2.70;;;17.50;76.80;;;;;;5071972;28;20021;-55
2021/04/29 10:57:56;;;;;;;2.85;2.63;;;17.50;76.20;;;;;;5079497;28;20033;-45
2021/04/29 11:00:25;;;;;;;4.22;2.53;;;17.00;78.90;;;;;;5060963;28;20029;-50
2021/04/29 11:03:05;;;;;;;2.78;2.58;;;16.60;79.70;;;;;;5077128;28;20037;-44
2021/04/29 11:05:33;;;;;;;2.60;2.40;;;16.30;78.60;;;;;;5077680;28;20024;-44
2021/04/29 11:08:09;;;;;;;3.45;2.90;;;16.10;77.70;;;;;;5076796;28;20588;-45
2021/04/29 11:10:36;;;;;;;;;;;15.80;79.50;;;;;;5084902;28;20516;-48
2021/04/29 11:13:02;;;;;;;4.03;3.72;;;15.70;80.70;;;;;;5078670;28;19908;-47
2021/04/29 11:15:40;;;;;;;5.93;3.90;;;15.40;81.50;;;;;;5078684;28;20021;-44
2021/04/29 11:18:13;;;;;;;6.65;3.97;;;15.30;83.30;;;;;;5059063;28;20159;-46
2021/04/29 11:20:45;;;;;;;5.50;4.43;;;15.40;85.00;;;;;;5080025;28;20049;-47
2021/04/29 11:23:13;;;;;;;8.00;3.88;;;15.50;81.50;;;;;;5077704;28;20029;-43
2021/04/29 11:25:39;;;;;;;3.38;2.83;;;15.60;81.80;;;;;;5086669;28;20503;-45
2021/04/29 11:28:06;;;;;;;2.97;2.40;;;15.50;75.70;;;;;;5099166;28;20043;-47
2021/04/29 11:30:32;;;;;;;3.28;3.00;;;15.40;75.90;;;;;;5099899;28;20075;-52
2021/04/29 11:33:08;;;;;;;5.45;3.70;;;15.30;77.20;;;;;;5095767;28;20020;-44
2021/04/29 11:35:37;;;;;;;4.72;4.32;;;15.30;78.00;;;;;;5076912;28;20028;-45
2021/04/29 11:38:05;;;;;;;6.93;4.47;;;15.20;80.50;;;;;;5078725;28;20498;-41
2021/04/29 11:40:33;;;;;;;6.00;5.20;;;15.20;83.50;;;;;;5079097;28;20470;-45
2021/04/29 11:43:00;;;;;;;6.03;4.70;;;15.20;83.80;;;;;;5078019;28;20431;-42
2021/04/29 11:45:31;;;;;;;5.10;4.60;;;15.10;83.20;;;;;;5100115;28;20048;-44
2021/04/29 11:48:06;;;;;;;4.70;4.30;;;15.20;83.80;;;;;;5100361;28;20439;-44
2021/04/29 11:50:34;;;;;;;5.28;4.88;;;15.40;84.20;;;;;;5091868;28;20028;-48
2021/04/29 11:53:13;;;;;;;3.15;2.80;;;15.60;85.90;;;;;;5100977;28;20059;-48
2021/04/29 11:55:47;;;;;;;6.03;2.58;;;15.80;80.50;;;;;;5103130;28;20023;-48
2021/04/29 11:58:15;;;;;;;5.77;2.50;;;16.00;79.60;;;;;;5083386;28;20086;-46
2021/04/29 12:00:47;;;;;;;2.38;2.17;;;16.20;80.70;;;;;;5081987;28;20092;-46
2021/04/29 12:03:14;;;;;;;2.47;2.28;;;16.20;79.20;;;;;;5080266;28;20036;-45
2021/04/29 12:05:48;;;;;;;3.70;3.35;;;16.00;79.80;;;;;;5079539;28;20028;-48
2021/04/29 12:08:25;;;;;;;2.72;2.53;;;15.90;81.10;;;;;;5098785;28;20039;-43
2021/04/29 12:10:52;;;;;;;3.47;2.50;;;15.80;80.90;;;;;;5099703;28;20388;-45
2021/04/29 12:13:42;;;;;;;4.18;3.72;;;15.80;81.40;;;;;;5099222;28;20027;-43
2021/04/29 12:16:11;;;;;;;5.03;3.83;;;15.70;80.90;;;;;;5094140;28;20021;-44
2021/04/29 12:18:42;;;;;;;3.60;3.30;;;15.60;82.20;;;;;;5090585;28;20036;-47
2021/04/29 12:21:09;;;;;;;9.05;5.38;;;15.80;83.20;;;;;;5089318;22;20049;-49
2021/04/29 12:23:34;;;;;;;6.28;4.00;;;15.90;83.70;;;;;;5030436;28;20110;-47
2021/04/29 12:26:08;;;;;;;5.65;4.25;;;16.10;85.10;;;;;;5038933;28;20506;-44
2021/04/29 12:28:39;;;;;;;5.00;3.92;;;16.30;81.40;;;;;;5050715;28;20033;-46
2021/04/29 12:31:20;;;;;;;6.05;4.20;;;16.50;81.90;;;;;;5048999;28;20402;-46
2021/04/29 12:34:01;;;;;;;6.50;4.57;;;16.60;81.80;;;;;;5020964;28;20536;-43
2021/04/29 12:36:27;;;;;;;6.57;4.95;;;16.80;83.20;;;;;;5033257;28;20029;-54
2021/04/29 12:38:53;;;;;;;6.20;4.45;;;16.80;78.00;;;;;;5016828;28;20021;-57
2021/04/29 12:41:23;;;;;;;4.68;4.22;;;16.70;80.40;;;;;;5040425;28;20040;-56